Fort Plain, New York
Current Conditions -  °F | °C
As of 3:35 PM on Tuesday 27 Jan 2015 (Local Time) from KNY0 Reporting Station
Overcast Overcast  
Wind Chill:   Ceiling: 2000
Heat Index: 14°   Visibility: 1.7mi
Dew Point:   Wind: 10mph
Humidity: 82%   Direction: 280°W
Pressure: 29.75"   Gusts: NA
Location:  42.93°N, 74.62°W
Report Text: KNY0 272035Z AUTO 28009KT 1 3/4SM OVC020 M10/M13 A2975 RMK AO2 T11001126
Loading
Personal Weather Stations






























Interactive Weather Map New forecast layout! Learn more

10-Day Weather Forecast

Advertisements
Track Severe Weather on mobile